Catàleg de serveis del Meteocat
Campanya meteocatpedra

Dades de l'estació automàtica la Tallada d'Empordà

?
?
Resum diari 22:00 TU
Dades diàries de l'estació meteorològica
Temperatura mitjana 13.6 °C
Temperatura màxima 17.6 °C 11:56 TU
Temperatura mínima 10.0 °C 4:59 TU
Humitat relativa mitjana 84%
Precipitació acumulada 0.0 mm
Ratxa màxima del vent (2 m) 16.6 km/h - 17º 11:42 TU
Irradiació solar global 12.1 MJ/m2

El tram horari està expressat en Temps Universal (TU). Cal sumar una hora en horari d'hivern i dues en horari d'estiu per passar a l'hora oficial.

la Tallada d'Empordà

Metadades estació meteorol´gica
Municipi La Tallada d'Empordà
Comarca Baix Empordà
Altitud 15 m
Data alta 01.05.1989
Estat actual Operativa
Dades de període
Període
TU
TM
°C
TX
°C
TN
°C
HRM
%
PPT
mm
VVM (2 m)
km/h
DVM (2 m)
graus
VVX (2 m)
km/h
RS
W/m2
00:00 - 00:30 12.0 12.1 11.7 93 0.0 0.7 123 2.9 0
00:30 - 01:00 11.6 11.6 11.5 94 0.0 0.4 264 2.2 0
01:00 - 01:30 11.4 11.5 10.8 95 0.0 1.1 298 2.9 0
01:30 - 02:00 11.0 11.1 10.9 96 0.0 0.7 343 3.2 0
02:00 - 02:30 10.6 10.9 10.4 96 0.0 0.4 346 3.2 0
02:30 - 03:00 10.7 10.8 10.4 96 0.0 0.7 281 2.5 0
03:00 - 03:30 10.9 11.1 10.7 96 0.0 0.4 276 2.9 0
03:30 - 04:00 10.9 11.0 10.8 96 0.0 0.7 275 4.3 0
04:00 - 04:30 10.6 10.8 10.4 97 0.0 0.0 1 2.2 0
04:30 - 05:00 10.4 10.6 10.0 97 0.0 0.4 284 2.5 0
05:00 - 05:30 10.3 10.5 10.1 97 0.0 1.1 287 3.2 15
05:30 - 06:00 10.6 10.8 10.5 97 0.0 0.4 285 1.8 51
06:00 - 06:30 11.4 12.1 10.9 97 0.0 1.4 11 5.0 104
06:30 - 07:00 12.4 13.0 12.1 96 0.0 4.0 11 7.6 230
07:00 - 07:30 13.3 13.8 13.0 94 0.0 3.6 7 7.9 207
07:30 - 08:00 14.3 14.7 13.8 88 0.0 4.3 2 9.7 243
08:00 - 08:30 15.0 15.2 14.7 80 0.0 5.0 13 11.2 303
08:30 - 09:00 15.2 15.5 15.1 78 0.0 5.0 9 11.5 290
09:00 - 09:30 15.3 15.5 15.1 76 0.0 5.4 14 11.5 264
09:30 - 10:00 15.4 15.7 15.3 76 0.0 5.0 9 11.9 238
10:00 - 10:30 15.9 16.3 15.6 75 0.0 5.8 9 12.6 339
10:30 - 11:00 16.5 17.0 16.1 73 0.0 5.4 1 14.8 555
11:00 - 11:30 17.1 17.4 16.7 70 0.0 6.5 13 14.0 617
11:30 - 12:00 17.3 17.6 16.9 70 0.0 7.9 12 16.6 529
12:00 - 12:30 16.7 17.1 16.5 72 0.0 7.2 16 13.7 353
12:30 - 13:00 16.4 16.8 15.9 73 0.0 7.2 19 14.4 319
13:00 - 13:30 16.1 16.3 15.8 75 0.0 5.4 15 12.6 313
13:30 - 14:00 16.2 16.5 15.9 74 0.0 5.8 19 12.2 331
14:00 - 14:30 16.0 16.1 15.8 74 0.0 6.1 20 12.2 276
14:30 - 15:00 15.8 16.0 15.6 76 0.0 6.1 15 12.6 239
15:00 - 15:30 15.6 15.7 15.5 78 0.0 6.1 18 13.7 180
15:30 - 16:00 15.3 15.5 15.1 80 0.0 6.8 20 14.4 157
16:00 - 16:30 15.3 15.4 15.1 80 0.0 6.1 18 12.6 195
16:30 - 17:00 15.4 15.5 15.2 77 0.0 5.0 18 15.8 173
17:00 - 17:30 15.0 15.1 14.9 77 0.0 5.4 20 10.1 107
17:30 - 18:00 14.7 14.9 14.5 78 0.0 5.8 7 13.3 55
18:00 - 18:30 14.2 14.5 13.9 79 0.0 5.8 5 11.5 17
18:30 - 19:00 13.7 13.9 13.6 81 0.0 5.0 10 12.6 4
19:00 - 19:30 13.5 13.7 13.4 81 0.0 5.4 6 12.2 3
19:30 - 20:00 13.6 13.8 13.1 80 0.0 2.2 70 10.4 3
20:00 - 20:30 13.0 13.1 12.8 82 0.0 2.9 348 9.4 3
20:30 - 21:00 12.4 12.7 12.3 83 0.0 2.2 301 8.3 3
21:00 - 21:30 12.2 12.4 11.8 82 0.0 1.8 278 5.4 3
21:30 - 22:00 11.5 11.9 11.0 85 0.0 0.7 319 3.6 3
22:00 - 22:30 11.4 11.9 10.8 85 0.0 0.4 353 2.9 3
22:30 - 23:00 (s/d) (s/d) (s/d) (s/d) (s/d) (s/d) (s/d) (s/d) (s/d)

Les dades en taronja només han passat un control de qualitat automàtic. Resta pendent la seva validació definitiva.